Weather at Léopold Sédar Senghor International Airport

Public forecast

Using degrees Celsius for public forecast. Weather courtesy of forecast.io.

Current aviation weather report (METAR) for Léopold Sédar Senghor International Airport

Report is more than 2 hours old.

2024/04/18 03:00 (retrieved 2 hours ago)

GOOY 180300Z 36008KT CAVOK 23/18 Q1010

Closest aviation forecast (TAF) to Léopold Sédar Senghor International Airport

Forecast is more than 6 hours old.

Closest forecast is Nelson Mandela International Airport, 348.1 nm (644.7 km) W.

2024/04/17 18:00 (retrieved 11 hours ago)

TAF GVAC 171700Z 1718/1824 04015KT 8000 NSC TAF GVNP 171700Z 1718/1824 03016KT 8000 NSC